Map

Track Data

SID SEASON NUMBER BASIN SUBBASIN NAME ISO_TIME NATURE LAT LON WMO_WIND WMO_PRES WMO_AGENCY TRACK_TYPE DIST2LAND LANDFALL IFLAG USA_AGENCY USA_ATCF_ID USA_LAT USA_LON USA_RECORD USA_STATUS USA_WIND USA_PRES USA_SSHS USA_R34_NE USA_R34_SE USA_R34_SW USA_R34_NW USA_R50_NE USA_R50_SE USA_R50_SW USA_R50_NW USA_R64_NE USA_R64_SE USA_R64_SW USA_R64_NW USA_POCI USA_ROCI USA_RMW USA_EYE TOKYO_LAT TOKYO_LON TOKYO_GRADE TOKYO_WIND TOKYO_PRES TOKYO_R50_DIR TOKYO_R50_LONG TOKYO_R50_SHORT TOKYO_R30_DIR TOKYO_R30_LONG TOKYO_R30_SHORT TOKYO_LAND CMA_LAT CMA_LON CMA_CAT CMA_WIND CMA_PRES HKO_LAT HKO_LON HKO_CAT HKO_WIND HKO_PRES NEWDELHI_LAT NEWDELHI_LON NEWDELHI_GRADE NEWDELHI_WIND NEWDELHI_PRES NEWDELHI_CI NEWDELHI_DP NEWDELHI_POCI REUNION_LAT REUNION_LON REUNION_TYPE REUNION_WIND REUNION_PRES REUNION_TNUM REUNION_CI REUNION_RMW REUNION_R34_NE REUNION_R34_SE REUNION_R34_SW REUNION_R34_NW REUNION_R50_NE REUNION_R50_SE REUNION_R50_SW REUNION_R50_NW REUNION_R64_NE REUNION_R64_SE REUNION_R64_SW REUNION_R64_NW BOM_LAT BOM_LON BOM_TYPE BOM_WIND BOM_PRES BOM_TNUM BOM_CI BOM_RMW BOM_R34_NE BOM_R34_SE BOM_R34_SW BOM_R34_NW BOM_R50_NE BOM_R50_SE BOM_R50_SW BOM_R50_NW BOM_R64_NE BOM_R64_SE BOM_R64_SW BOM_R64_NW BOM_ROCI BOM_POCI BOM_EYE BOM_POS_METHOD BOM_PRES_METHOD NADI_LAT NADI_LON NADI_CAT NADI_WIND NADI_PRES WELLINGTON_LAT WELLINGTON_LON WELLINGTON_WIND WELLINGTON_PRES DS824_LAT DS824_LON DS824_STAGE DS824_WIND DS824_PRES TD9636_LAT TD9636_LON TD9636_STAGE TD9636_WIND TD9636_PRES TD9635_LAT TD9635_LON TD9635_WIND TD9635_PRES TD9635_ROCI NEUMANN_LAT NEUMANN_LON NEUMANN_CLASS NEUMANN_WIND NEUMANN_PRES MLC_LAT MLC_LON MLC_CLASS MLC_WIND MLC_PRES USA_GUST BOM_GUST BOM_GUST_PER REUNION_GUST REUNION_GUST_PER USA_SEAHGT USA_SEARAD_NE USA_SEARAD_SE USA_SEARAD_SW USA_SEARAD_NW STORM_SPEED STORM_DIR
1978347S20041 1979 130 SI MM ANGELE 1978-12-13 00:00:00 TS -19.9000 41.0000 main 309 309 ____________O_ -1 -19.9000 41.0000 TC 30 4 5
1978347S20041 1979 130 SI MM ANGELE 1978-12-13 03:00:00 TS -19.7150 41.0000 main 322 322 ____________P_ -1 -19.7150 41.0000 TC 30 2 8
1978347S20041 1979 130 SI MM ANGELE 1978-12-13 06:00:00 TS -19.7000 41.0000 main 322 322 O________OO_O_ jtwc_sh SH021979 -19.9000 41.0000 -1 -19.9000 41.0000 TC 25 -19.9000 41.0000 1 -19.5000 41.0000 TC 30 2 3
1978347S20041 1979 130 SI MM ANGELE 1978-12-13 09:00:00 TS -19.5174 41.0003 main 335 326 P________PP_P_ SH021979 -19.7150 41.0000 -1 -19.7150 41.0000 TC 25 -19.6968 41.0016 1 -19.2300 41.0000 TC 30 4 0
1978347S20041 1979 130 SI MM ANGELE 1978-12-13 12:00:00 TS -19.3096 41.0006 main 326 309 O________OP_O_ jtwc_sh SH021979 -19.5000 41.0000 -1 -19.5000 41.0000 TC 25 -19.4750 41.0025 1 -18.9000 41.0000 TC 30 5 0
1978347S20041 1979 130 SI MM ANGELE 1978-12-13 15:00:00 TS -19.0458 41.0006 main 300 276 P________PP_P_ SH021979 -19.2300 41.0000 -1 -19.2300 41.0000 TC 25 -19.2156 41.0022 1 -18.5075 41.0000 TC 30 6 0
1978347S20041 1979 130 SI MM ANGELE 1978-12-13 18:00:00 TS -18.7000 41.0000 main 276 238 O________OO_O_ jtwc_sh SH021979 -18.9000 41.0000 -1 -18.9000 41.0000 TC 25 -18.9000 41.0000 1 -18.1000 41.0000 TC 30 7 360
1978347S20041 1979 130 SI MM ANGELE 1978-12-13 21:00:00 TS -18.3120 40.9990 main 238 201 P________PP_P_ SH021979 -18.5075 41.0000 -1 -18.5075 41.0000 TC 25 -18.5203 40.9959 1 -17.7125 41.0000 TC 30 8 358
1978347S20041 1979 130 SI MM ANGELE 1978-12-14 00:00:00 TS -17.9281 40.9981 main 201 177 O________OP_O_ jtwc_sh SH021979 -18.1000 41.0000 -1 -18.1000 41.0000 TC 25 -18.1125 40.9925 1 -17.4000 41.0000 TC 30 7 358
1978347S20041 1979 130 SI MM ANGELE 1978-12-14 03:00:00 TS -17.5902 40.9963 main 177 155 P________PP_P_ SH021979 -17.7125 41.0000 -1 -17.7125 41.0000 TC 25 -17.7234 40.9928 1 -17.2125 40.9925 TC 30 6 0
1978347S20041 1979 130 SI MM ANGELE 1978-12-14 06:00:00 TS -17.3250 41.0000 main 155 149 O________OO_O_ jtwc_sh SH021979 -17.4000 41.0000 -1 -17.4000 41.0000 TC 25 -17.4000 41.0000 1 -17.1000 41.0000 TC 30 4 3
1978347S20041 1979 130 SI MM ANGELE 1978-12-14 09:00:00 TS -17.1609 41.0083 main 149 144 P________PP_P_ SH021979 -17.2125 40.9925 -1 -17.2125 40.9925 TC 25 -17.2112 41.0056 1 -17.0075 41.0425 TC 30 3 7
1978347S20041 1979 130 SI MM ANGELE 1978-12-14 12:00:00 TS -17.0475 41.0300 main 139 139 O________OP_O_ jtwc_sh SH021979 -17.1000 41.0000 -1 -17.1000 41.0000 TC 25 -17.0900 41.0199 1 -16.9000 41.1000 TC 30 2 14
1978347S20041 1979 130 SI MM ANGELE 1978-12-14 15:00:00 TS -16.9303 41.0635 main 141 135 P________PP_P_ SH021979 -17.0075 41.0350 -1 -17.0075 41.0350 TC 25 -16.9987 41.0493 1 -16.7075 41.1350 TC 30 3 19
1978347S20041 1979 130 SI MM ANGELE 1978-12-14 18:00:00 TS -16.8000 41.1250 main 135 131 O________OO_O_ jtwc_sh SH021979 -16.9000 41.1000 -1 -16.9000 41.1000 TC 25 -16.9000 41.1000 1 -16.5000 41.2000 TC 30 4 27
1978347S20041 1979 130 SI MM ANGELE 1978-12-14 21:00:00 TS -16.6105 41.2315 main 131 124 P________PP_P_ SH021979 -16.7075 41.1925 -1 -16.7075 41.1925 TC 25 -16.7069 41.1908 1 -16.3200 41.3501 TC 30 4 30
1978347S20041 1979 130 SI MM ANGELE 1978-12-15 00:00:00 TS -16.4263 41.3501 main 132 126 O________OP_O_ jtwc_sh SH021979 -16.5000 41.3000 -1 -16.5000 41.3000 TC 25 -16.5051 41.3003 1 -16.2000 41.5000 TC 30 4 33
1978347S20041 1979 130 SI MM ANGELE 1978-12-15 03:00:00 TS -16.2839 41.4530 main 135 130 P________PP_P_ SH021979 -16.3200 41.4150 -1 -16.3200 41.4150 TC 25 -16.3257 41.4096 1 -16.1700 41.5725 TC 30 3 37
1978347S20041 1979 130 SI MM ANGELE 1978-12-15 06:00:00 TS -16.2000 41.5250 main 130 130 O________OO_O_ jtwc_sh SH021979 -16.2000 41.5000 -1 -16.2000 41.5000 TC 25 -16.2000 41.5000 1 -16.2000 41.6000 TC 30 1 39
1978347S20041 1979 130 SI MM ANGELE 1978-12-15 09:00:00 TS -16.1865 41.5354 main 130 130 P________PP_P_ SH021979 -16.1700 41.5075 -1 -16.1700 41.5075 TC 25 -16.1634 41.5343 1 -16.2425 41.5925 TC 30 0 0
1978347S20041 1979 130 SI MM ANGELE 1978-12-15 12:00:00 TS -16.2206 41.5375 main 130 130 O________OP_O_ jtwc_sh SH021979 -16.2000 41.5000 -1 -16.2000 41.5000 TC 25 -16.1824 41.5499 1 -16.3000 41.6000 TC 30 1 144
1978347S20041 1979 130 SI MM ANGELE 1978-12-15 15:00:00 TS -16.2713 41.5876 main 144 144 P________PP_P_ SH021979 -16.2425 41.5350 -1 -16.2425 41.5350 TC 25 -16.2353 41.5656 1 -16.3650 41.7150 TC 32 2 135
1978347S20041 1979 130 SI MM ANGELE 1978-12-15 18:00:00 TS -16.3250 41.6500 main 154 154 O________OO_O_ jtwc_sh SH021979 -16.3000 41.6000 -1 -16.3000 41.6000 TC 25 -16.3000 41.6000 1 -16.4000 41.8000 TC 35 1 125
1978347S20041 1979 130 SI MM ANGELE 1978-12-15 21:00:00 TS -16.3491 41.7014 main 154 154 P________PP_P_ SH021979 -16.3500 41.6925 -1 -16.3500 41.6925 TC 25 -16.3388 41.6906 1 -16.3575 41.7300 TC 40 1 116
1978347S20041 1979 130 SI MM ANGELE 1978-12-16 00:00:00 TS -16.3713 41.7500 main 159 159 O________OP_O_ jtwc_sh SH021979 -16.4000 41.8000 -1 -16.4000 41.8000 TC 25 -16.3851 41.7999 1 -16.3000 41.6000 TC 45 1 119
1978347S20041 1979 130 SI MM ANGELE 1978-12-16 03:00:00 TS -16.4003 41.7967 main 168 168 P________PP_P_ SH021979 -16.4500 41.9075 -1 -16.4500 41.9075 TC 25 -16.4388 41.9093 1 -16.2625 41.4625 TC 47 1 136
1978347S20041 1979 130 SI MM ANGELE 1978-12-16 06:00:00 TS -16.4412 41.8235 reunion main 168 168 O____O___OO_O_ jtwc_sh SH021979 -16.5000 42.0000 -1 -16.3000 41.4000 3 9.90000 -16.5000 42.0000 TC 25 -16.5000 42.0000 1 -16.3000 41.4000 TC 50 2 149
1978347S20041 1979 130 SI MM ANGELE 1978-12-16 09:00:00 TS -16.5362 41.8809 main 183 183 P____P___PP_P_ SH021979 -16.5425 42.0650 -1 -16.5275 41.5424 3 -16.5425 42.0650 TC 25 -16.5718 42.0506 1 -16.4925 41.5124 TC 50 2 150
1978347S20041 1979 130 SI MM ANGELE 1978-12-16 12:00:00 TS -16.6474 41.9484 reunion main 189 189 O____O___OP_O_ jtwc_sh SH021979 -16.6000 42.1000 -1 -16.7000 41.7000 99 9.90000 -16.6000 42.1000 TC 25 -16.6500 42.0800 1 -16.7000 41.7000 TC 50 2 148
1978347S20041 1979 130 SI MM ANGELE 1978-12-16 15:00:00 TS -16.7376 42.0109 main 204 204 P____P___PP_P_ SH021979 -16.7000 42.1075 -1 -16.7800 41.8725 99 -16.7000 42.1075 TC 25 -16.7281 42.0944 1 -16.7800 41.8725 TC 50 2 145
1978347S20041 1979 130 SI MM ANGELE 1978-12-16 18:00:00 TS -16.8000 42.0600 reunion main 206 206 O____O___OO_O_ jtwc_sh SH021979 -16.8000 42.1000 -1 -16.8000 42.0000 99 9.90000 -16.8000 42.1000 TC 25 -16.8000 42.1000 1 -16.8000 42.0000 TC 50 1 158
1978347S20041 1979 130 SI MM ANGELE 1978-12-16 21:00:00 TS -16.8412 42.0541 main 206 202 P____P___PP_P_ SH021979 -16.8575 42.1000 -1 -16.8149 41.9775 99 -16.8575 42.1000 TC 25 -16.8612 42.1153 1 -16.8149 41.9775 TC 50 1 157
1978347S20041 1979 130 SI MM ANGELE 1978-12-17 00:00:00 TS -16.8630 42.0645 reunion main 202 192 O____O___OP_O_ jtwc_sh SH021979 -16.9000 42.1000 -1 -16.8000 42.0000 99 9.90000 -16.9000 42.1000 TC 25 -16.9150 42.1225 1 -16.8000 42.0000 TC 50 1 109
1978347S20041 1979 130 SI MM ANGELE 1978-12-17 03:00:00 TS -16.8843 42.1867 main 192 182 P____P___PP_P_ SH021979 -16.9500 42.1075 -1 -16.7802 42.3000 99 -16.9500 42.1075 TC 30 -16.9612 42.1184 1 -16.7802 42.3000 TC 50 2 94
1978347S20041 1979 130 SI MM ANGELE 1978-12-17 06:00:00 TS -16.8800 42.3000 reunion main 182 182 O____O___OO_O_ jtwc_sh SH021979 -17.0000 42.1000 -1 -16.7000 42.6000 3 9.90000 -17.0000 42.1000 TC 35 -17.0000 42.1000 2 -16.7000 42.6000 TC 50 1 66
1978347S20041 1979 130 SI MM ANGELE 1978-12-17 09:00:00 TS -16.8340 42.3015 main 187 187 P____P___PP_P_ SH021979 -17.0575 42.0575 -1 -16.5074 42.6600 3 -17.0575 42.0575 TC 35 -17.0403 42.0725 2 -16.5074 42.6600 TC 55 1 333
1978347S20041 1979 130 SI MM ANGELE 1978-12-17 12:00:00 TS -16.7745 42.2460 reunion main 196 196 O____O___OP_O_ jtwc_sh SH021979 -17.1000 42.0000 -1 -16.3000 42.6000 99 9.90000 -17.1000 42.0000 TC 35 -17.0725 42.0300 2 -16.3000 42.6000 TC 60 2 310
1978347S20041 1979 130 SI MM ANGELE 1978-12-17 15:00:00 TS -16.7327 42.1805 main 201 201 P____P___PP_P_ SH021979 -17.1075 41.9500 -1 -16.1775 42.5150 99 -17.1075 41.9500 TC 35 -17.0934 41.9725 2 -16.1775 42.5150 TC 65 2 298
1978347S20041 1979 130 SI MM ANGELE 1978-12-17 18:00:00 TS -16.7000 42.1000 reunion main 211 204 O____O___OO_O_ jtwc_sh SH021979 -17.1000 41.9000 -1 -16.1000 42.4000 99 9.90000 -17.1000 41.9000 TC 35 -17.1000 41.9000 2 -16.1000 42.4000 TC 70 2 291
1978347S20041 1979 130 SI MM ANGELE 1978-12-17 21:00:00 TS -16.6781 42.0338 main 204 204 P____P___PP_P_ SH021979 -17.1075 41.8650 -1 -16.0350 42.3000 99 -17.1075 41.8650 TC 35 -17.1055 41.8389 2 -16.0350 42.3000 TC 75 1 286
1978347S20041 1979 130 SI MM ANGELE 1978-12-18 00:00:00 TS -16.6590 41.9520 reunion main 204 189 O____O___OP_O_ jtwc_sh SH021979 -17.1000 41.8000 -1 -16.0000 42.2000 99 9.90000 -17.1000 41.8000 TC 35 -17.0948 41.7602 2 -16.0000 42.2000 TC 80 2 284
1978347S20041 1979 130 SI MM ANGELE 1978-12-18 03:00:00 TS -16.6353 41.8573 main 189 171 P____P___PP_P_ SH021979 -17.0650 41.6800 -1 -15.9924 42.1375 99 -17.0650 41.6800 TC 35 -17.0617 41.6514 2 -15.9924 42.1375 TC 87 2 284
1978347S20041 1979 130 SI MM ANGELE 1978-12-18 06:00:00 TS -16.6000 41.7000 72 954 reunion main 171 147 O____O___OO_O_ jtwc_sh SH021979 -17.0000 41.5000 -1 -16.0000 42.0000 4 72 954 5.00000 5.00000 -17.0000 41.5000 TC 35 -17.0000 41.5000 2 -16.0000 42.0000 TC 95 954 4 283
1978347S20041 1979 130 SI MM ANGELE 1978-12-18 09:00:00 TS -16.5436 41.4366 main 139 115 P____P___PP_P_ SH021979 -16.9150 41.2650 -1 -16.0001 41.6800 4 -16.9150 41.2650 TC 35 -16.8876 41.2928 2 -16.0001 41.6800 TC 92 6 283
1978347S20041 1979 130 SI MM ANGELE 1978-12-18 12:00:00 TS -16.4700 41.1289 reunion main 115 92 O____O___OP_O_ jtwc_sh SH021979 -16.8000 41.0000 -1 -16.0000 41.3000 99 9.90000 -16.8000 41.0000 TC 35 -16.7501 41.0446 2 -16.0000 41.3000 TC 90 6 287
1978347S20041 1979 130 SI MM ANGELE 1978-12-18 15:00:00 TS -16.3765 40.8548 main 92 61 P____P___PP_P_ SH021979 -16.6425 40.7500 -1 -15.9924 41.0000 99 -16.6425 40.7500 TC 35 -16.6126 40.7741 2 -15.9924 41.0000 TC 90 6 288
1978347S20041 1979 130 SI MM ANGELE 1978-12-18 18:00:00 TS -16.3000 40.5800 reunion main 61 33 O____O___OO_O_ jtwc_sh SH021979 -16.5000 40.5000 -1 -16.0000 40.7000 99 9.90000 -16.5000 40.5000 TC 35 -16.5000 40.5000 2 -16.0000 40.7000 TC 90 5 281
1978347S20041 1979 130 SI MM ANGELE 1978-12-18 21:00:00 TS -16.2739 40.2960 main 33 11 P____P___PP_P_ SH021979 -16.4275 40.2500 -1 -16.0424 40.3650 99 -16.4275 40.2500 TC 35 -16.4299 40.2501 2 -16.0424 40.3650 TC 90 6 272
1978347S20041 1979 130 SI MM ANGELE 1978-12-19 00:00:00 TS -16.2780 40.0000 reunion main 11 0 O____O___OP_O_ jtwc_sh SH021979 -16.4000 40.0000 -1 -16.1000 40.0000 99 9.90000 -16.4000 40.0000 TC 35 -16.3899 40.0000 2 -16.1000 40.0000 TC 90 6 269
1978347S20041 1979 130 SI MM ANGELE 1978-12-19 03:00:00 TS -16.2840 39.6870 main 0 0 P____P___PP_P_ SH021979 -16.3850 39.7500 -1 -16.1350 39.5924 99 -16.3850 39.7500 TC 35 -16.3799 39.7500 2 -16.1350 39.5924 TC 90 6 266
1978347S20041 1979 130 SI MM ANGELE 1978-12-19 06:00:00 TS -16.3200 39.3800 72 954 reunion main 0 0 O____O___OO_O_ jtwc_sh SH021979 -16.4000 39.5000 -1 -16.2000 39.2000 4 72 954 5.00000 5.00000 -16.4000 39.5000 TC 35 -16.4000 39.5000 2 -16.2000 39.2000 TC 90 954 6 259
1978347S20041 1979 130 SI MM ANGELE 1978-12-19 09:00:00 TS -16.3934 39.1067 main 0 0 P____P___PP_P_ SH021979 -16.4350 39.2500 -1 -16.3273 38.8999 4 -16.4350 39.2500 TC 35 -16.4422 39.2339 2 -16.3273 38.8999 TC 72 6 251
1978347S20041 1979 130 SI MM ANGELE 1978-12-19 12:00:00 TS -16.5025 38.8340 reunion main 0 0 O____O___OP_O_ jtwc_sh SH021979 -16.5000 39.0000 -1 -16.5000 38.6000 99 9.90000 -16.5000 39.0000 TC 35 -16.5126 38.9702 2 -16.5000 38.6000 TC 55 6 247
1978347S20041 1979 130 SI MM ANGELE 1978-12-19 15:00:00 TS -16.6343 38.5243 main 0 0 P____P___PP_P_ SH021979 -16.5925 38.7350 -1 -16.6925 38.2150 99 -16.5925 38.7350 TC 35 -16.6016 38.7214 2 -16.6925 38.2150 TC 50 7 245
1978347S20041 1979 130 SI MM ANGELE 1978-12-19 18:00:00 TS -16.7800 38.2200 reunion main 0 0 O____O___OO_O_ jtwc_sh SH021979 -16.7000 38.5000 -1 -16.9000 37.8000 99 9.90000 -16.7000 38.5000 TC 35 -16.7000 38.5000 2 -16.9000 37.8000 TC 45 6 243
1978347S20041 1979 130 SI MM ANGELE 1978-12-19 21:00:00 TS -16.9095 37.9597 main 0 0 P____P___PP_P_ SH021979 -16.7999 38.3350 -1 -17.0774 37.3998 99 -16.7999 38.3350 TC 35 -16.7926 38.3293 2 -17.0774 37.3998 TC 40 6 240
1978347S20041 1979 130 SI MM ANGELE 1978-12-20 00:00:00 TS -17.0584 37.7170 reunion main 0 0 O____O___OP_O_ jtwc_sh SH021979 -16.9000 38.2000 -1 -17.3000 37.0000 99 9.90000 -16.9000 38.2000 TC 35 -16.8922 38.1849 2 -17.3000 37.0000 TC 35 6 236
1978347S20041 1979 130 SI MM ANGELE 1978-12-20 03:00:00 TS -17.2502 37.4368 main 0 0 P____P___PP_P_ SH021979 -17.0000 38.0575 -1 -17.6277 36.5105 99 -17.0000 38.0575 TC 35 -16.9957 38.0480 2 -17.6277 36.5105 TC 35 6 230
1978347S20041 1979 130 SI MM ANGELE 1978-12-20 06:00:00 TS -17.4600 37.2200 52 976 reunion main 0 0 O____O___OO_O_ jtwc_sh SH021979 -17.1000 37.9000 -1 -18.0000 36.2000 3 52 976 4.00000 4.00000 -17.1000 37.9000 TC 35 -17.1000 37.9000 2 -18.0000 36.2000 TC 35 976 5 214
1978347S20041 1979 130 SI MM ANGELE 1978-12-20 09:00:00 TS -17.6785 37.1336 main 0 0 P____P___PP_P_ SH021979 -17.2000 37.7075 -1 -18.4023 36.2794 3 -17.2000 37.7075 TC 35 -17.1879 37.6941 2 -18.4023 36.2794 TC 40 3 0
1978347S20041 1979 130 SI MM ANGELE 1978-12-20 12:00:00 TS -17.7617 37.1950 reunion main 10 0 O____O___OP_O_ jtwc_sh SH021979 -17.3000 37.5000 -1 -18.7000 36.6000 99 9.90000 -17.3000 37.5000 TC 35 -17.2777 37.4775 2 -18.7000 36.6000 TC 45 1 125
1978347S20041 1979 130 SI MM ANGELE 1978-12-20 15:00:00 TS -17.7290 37.1993 main 0 0 P____P___PP_P_ SH021979 -17.3925 37.2850 -1 -18.7560 36.9796 99 -17.3925 37.2850 TC 35 -17.3786 37.2722 2 -18.7560 36.9796 TC 50 1 330
1978347S20041 1979 130 SI MM ANGELE 1978-12-20 18:00:00 TS -17.6714 37.1429 reunion main 0 0 O____O___OO_O_ jtwc_sh SH021979 -17.5000 37.1000 -1 -18.7000 37.4000 99 9.90000 -17.5000 37.1000 TC 35 -17.5000 37.1000 2 -18.7000 37.4000 TC 55 2 293
1978347S20041 1979 130 SI MM ANGELE 1978-12-20 21:00:00 TS -17.6384 36.9759 main 0 0 P____P___PP_P_ SH021979 -17.6350 36.9775 -1 -18.7507 37.7378 99 -17.6350 36.9775 TC 35 -17.6452 36.9728 2 -18.7507 37.7378 TC 3 241
1978347S20041 1979 130 SI MM ANGELE 1978-12-21 00:00:00 TS -17.8041 36.8942 reunion main 0 0 O____P___OP_P_ jtwc_sh SH021979 -17.8000 36.9000 -1 -18.8383 38.0226 99 -17.8000 36.9000 TC 35 -17.8124 36.8825 2 -18.8383 38.0226 TC 4 201
1978347S20041 1979 130 SI MM ANGELE 1978-12-21 03:00:00 TS -17.9945 36.8320 main 0 0 P____P___PP_P_ SH021979 -17.9925 36.8350 -1 -18.9548 38.2546 99 -17.9925 36.8350 TC 35 -17.9984 36.8260 2 -18.9548 38.2546 TC 4 192
1978347S20041 1979 130 SI MM ANGELE 1978-12-21 06:00:00 TS -18.2000 36.8000 52 976 reunion main 0 0 O____P___OO_P_ jtwc_sh SH021979 -18.2000 36.8000 -1 -19.0923 38.4339 99 -18.2000 36.8000 TC 35 -18.2000 36.8000 2 -19.0923 38.4339 TC 4 186
1978347S20041 1979 130 SI MM ANGELE 1978-12-21 09:00:00 TS -18.4012 36.7860 main 15 15 P____P___PP_P_ SH021979 -18.3925 36.7850 -1 -19.2426 38.5604 99 -18.3925 36.7850 TC 35 -18.4187 36.7880 2 -19.2426 38.5604 TC 4 178
1978347S20041 1979 130 SI MM ANGELE 1978-12-21 12:00:00 TS -18.6167 36.8016 reunion main 30 30 O____P___OP_P_ jtwc_sh SH021979 -18.6000 36.8000 -1 -19.3975 38.6342 99 -18.6000 36.8000 TC 35 -18.6500 36.8049 2 -19.3975 38.6342 TC 5 173
1978347S20041 1979 130 SI MM ANGELE 1978-12-21 15:00:00 TS -18.8654 36.8381 main 46 46 P____P___PP_P_ SH021979 -18.8575 36.8350 -1 -19.5490 38.6552 99 -18.8575 36.8350 TC 35 -18.8812 36.8443 2 -19.5490 38.6552 TC 5 169
1978347S20041 1979 130 SI MM ANGELE 1978-12-21 18:00:00 TS -19.1000 36.9000 reunion main 66 66 O____P___OO_P_ jtwc_sh SH021979 -19.1000 36.9000 -1 -19.6887 38.6232 99 -19.1000 36.9000 TC 35 -19.1000 36.9000 2 -19.6887 38.6232 TC 4 159
1978347S20041 1979 130 SI MM ANGELE 1978-12-21 21:00:00 TS -19.2587 37.0003 main 86 86 P____P___PP_P_ SH021979 -19.2575 37.0000 -1 -19.8085 38.5381 99 -19.2575 37.0000 TC 35 -19.2610 37.0008 2 -19.8085 38.5381 TC 5 136
1978347S20041 1979 130 SI MM ANGELE 1978-12-22 00:00:00 TS -19.4750 37.2884 reunion main 124 124 O____O___OP_O_ jtwc_sh SH021979 -19.4000 37.1000 -1 -19.9000 38.4000 99 9.90000 -19.4000 37.1000 TC 35 -19.4125 37.1093 2 -19.9000 38.4000 TC 75 6 135
1978347S20041 1979 130 SI MM ANGELE 1978-12-22 03:00:00 TS -19.6682 37.4407 main 146 146 P____P___PP_P_ SH021979 -19.5775 37.1874 -1 -19.9270 38.2143 99 -19.5775 37.1874 TC 35 -19.5828 37.1881 2 -19.9270 38.2143 TC 70 4 157
1978347S20041 1979 130 SI MM ANGELE 1978-12-22 06:00:00 TS -19.8667 37.4667 52 976 reunion main 168 160 O____O___OO_O_ jtwc_sh SH021979 -19.8000 37.2000 -1 -20.0000 38.0000 3 52 976 4.00000 4.00000 -19.8000 37.2000 TC 35 -19.8000 37.2000 2 -20.0000 38.0000 TC 65 976 5 188
1978347S20041 1979 130 SI MM ANGELE 1978-12-22 09:00:00 TS -20.1195 37.3709 main 176 176 P____P___PP_P_ SH021979 -20.0700 37.0875 -1 -20.1850 37.7851 3 -20.0700 37.0875 TC 35 -20.0875 37.1092 2 -20.1850 37.7851 TC 70 6 206
1978347S20041 1979 130 SI MM ANGELE 1978-12-22 12:00:00 TS -20.4050 37.1895 reunion main 192 192 O____O___OP_O_ jtwc_sh SH021979 -20.4000 36.9000 -1 -20.4000 37.6000 99 9.90000 -20.4000 36.9000 TC 35 -20.4250 36.9476 2 -20.4000 37.6000 TC 75 7 209
1978347S20041 1979 130 SI MM ANGELE 1978-12-22 15:00:00 TS -20.6970 37.0303 main 198 178 P____P___PP_P_ SH021979 -20.7699 36.7223 -1 -20.5725 37.4849 99 -20.7699 36.7223 TC 35 -20.8000 36.7371 2 -20.5725 37.4849 TC 75 7 207
1978347S20041 1979 130 SI MM ANGELE 1978-12-22 18:00:00 TS -21.0000 36.8600 reunion main 178 148 O____O___OO_O_ jtwc_sh SH021979 -21.2000 36.5000 -1 -20.7000 37.4000 99 9.90000 -21.2000 36.5000 TC 35 -21.2000 36.5000 2 -20.7000 37.4000 TC 75 7 210
1978347S20041 1979 130 SI MM ANGELE 1978-12-22 21:00:00 TS -21.3239 36.6417 main 138 113 P____P___PP_P_ SH021979 -21.7076 36.2003 -1 -20.7575 37.3000 99 -21.7076 36.2003 TC 35 -21.6891 36.2081 2 -20.7575 37.3000 TC 75 8 213
1978347S20041 1979 130 SI MM ANGELE 1978-12-23 00:00:00 TS -21.6371 36.4209 reunion main 113 79 O____O___OP_O_ jtwc_sh SH021979 -22.2000 35.9000 -1 -20.8000 37.2000 99 9.90000 -22.2000 35.9000 TC 35 -22.1855 35.9045 2 -20.8000 37.2000 TC 75 7 212
1978347S20041 1979 130 SI MM ANGELE 1978-12-23 03:00:00 TS -21.9358 36.2317 main 79 62 P____P___PP_P_ SH021979 -22.6325 35.6400 -1 -20.9000 37.1150 99 -22.6325 35.6400 TC 35 -22.6140 35.6484 2 -20.9000 37.1150 TC 70 6 211
1978347S20041 1979 130 SI MM ANGELE 1978-12-23 06:00:00 TS -22.1400 36.1000 52 976 reunion main 62 51 O____O___OO_O_ jtwc_sh SH021979 -22.9000 35.5000 -1 -21.0000 37.0000 3 52 976 4.00000 4.00000 -22.9000 35.5000 TC 35 -22.9000 35.5000 2 -21.0000 37.0000 TC 65 976 3 216
1978347S20041 1979 130 SI MM ANGELE 1978-12-23 09:00:00 TS -22.1717 36.0433 main 51 51 P____P___PP_P_ SH021979 -22.9249 35.5398 -1 -21.0350 36.8074 3 -22.9249 35.5398 TC 35 -22.9385 35.5222 2 -21.0350 36.8074 TC 72 0 289
1978347S20041 1979 130 SI MM ANGELE 1978-12-23 12:00:00 TS -22.1270 36.0514 reunion main 62 62 O____O___OP_O_ jtwc_sh SH021979 -22.8000 35.7000 -1 -21.1000 36.6000 99 9.90000 -22.8000 35.7000 TC 35 -22.8348 35.6571 2 -21.1000 36.6000 TC 80 1 43
1978347S20041 1979 130 SI MM ANGELE 1978-12-23 15:00:00 TS -22.1067 36.0978 main 62 62 P____P___PP_P_ SH021979 -22.6425 35.8776 -1 -21.2925 36.4351 99 -22.6425 35.8776 TC 35 -22.6637 35.8634 2 -21.2925 36.4351 TC 85 1 77
1978347S20041 1979 130 SI MM ANGELE 1978-12-23 18:00:00 TS -22.1000 36.1800 reunion main 72 72 O____O___OO_O_ jtwc_sh SH021979 -22.5000 36.1000 -1 -21.5000 36.3000 99 9.90000 -22.5000 36.1000 TC 35 -22.5000 36.1000 2 -21.5000 36.3000 TC 90 2 98
1978347S20041 1979 130 SI MM ANGELE 1978-12-23 21:00:00 TS -22.1301 36.2762 main 83 82 P____P___PP_P_ SH021979 -22.4850 36.3499 -1 -21.6075 36.1849 99 -22.4850 36.3499 TC 35 -22.4657 36.3113 2 -21.6075 36.1849 TC 97 2 110
1978347S20041 1979 130 SI MM ANGELE 1978-12-24 00:00:00 TS -22.1700 36.3884 reunion main 92 92 O____O___OP_O_ jtwc_sh SH021979 -22.5000 36.6000 -1 -21.7000 36.1000 99 9.90000 -22.5000 36.6000 TC 35 -22.4502 36.5422 2 -21.7000 36.1000 TC 105 2 115
1978347S20041 1979 130 SI MM ANGELE 1978-12-24 03:00:00 TS -22.2189 36.4804 main 102 102 P____P___PP_P_ SH021979 -22.4649 36.8075 -1 -21.8650 36.0050 99 -22.4649 36.8075 TC 35 -22.4345 36.7769 2 -21.8650 36.0050 TC 107 2 110
1978347S20041 1979 130 SI MM ANGELE 1978-12-24 06:00:00 TS -22.2400 36.6000 82 941 reunion main 113 113 O____O___OO_O_ jtwc_sh SH021979 -22.4000 37.0000 -1 -22.0000 36.0000 4 82 941 5.50000 5.50000 -22.4000 37.0000 TC 35 -22.4000 37.0000 2 -22.0000 36.0000 TC 110 941 3 85
1978347S20041 1979 130 SI MM ANGELE 1978-12-24 09:00:00 TS -22.1971 36.7783 main 133 133 P____P___PP_P_ SH021979 -22.3075 37.2075 -1 -22.0225 36.1475 4 -22.3075 37.2075 TC 35 -22.3254 37.1812 2 -22.0225 36.1475 TC 107 4 72
1978347S20041 1979 130 SI MM ANGELE 1978-12-24 12:00:00 TS -22.1259 36.9900 reunion main 154 154 O____O___OP_O_ jtwc_sh SH021979 -22.2000 37.4000 -1 -22.0000 36.4000 99 9.90000 -22.2000 37.4000 TC 35 -22.2297 37.3499 2 -22.0000 36.4000 TC 105 4 72
1978347S20041 1979 130 SI MM ANGELE 1978-12-24 15:00:00 TS -22.0728 37.2007 main 175 175 P____P___PP_P_ SH021979 -22.1074 37.5499 -1 -22.0151 36.6924 99 -22.1074 37.5499 TC 35 -22.1192 37.5187 2 -22.0151 36.6924 TC 100 4 72
1978347S20041 1979 130 SI MM ANGELE 1978-12-24 18:00:00 TS -22.0000 37.4200 reunion main 196 196 O____O___OO_O_ jtwc_sh SH021979 -22.0000 37.7000 -1 -22.0000 37.0000 99 9.90000 -22.0000 37.7000 TC 35 -22.0000 37.7000 2 -22.0000 37.0000 TC 95 4 64
1978347S20041 1979 130 SI MM ANGELE 1978-12-24 21:00:00 TS -21.8828 37.6269 main 218 218 P____P___PP_P_ SH021979 -21.8500 37.8850 -1 -21.9224 37.2575 99 -21.8500 37.8850 TC 35 -21.8691 37.8496 2 -21.9224 37.2575 TC 95 5 57
1978347S20041 1979 130 SI MM ANGELE 1978-12-25 00:00:00 TS -21.7467 37.8445 reunion main 243 243 O____O___OP_O_ jtwc_sh SH021979 -21.7000 38.1000 -1 -21.8000 37.5000 99 9.90000 -21.7000 38.1000 TC 35 -21.7335 38.0224 2 -21.8000 37.5000 TC 95 5 57
1978347S20041 1979 130 SI MM ANGELE 1978-12-25 03:00:00 TS -21.6269 38.0466 main 266 266 P____P___PP_P_ SH021979 -21.5922 38.2974 -1 -21.6720 37.6897 99 -21.5922 38.2974 TC 35 -21.6062 38.2590 2 -21.6720 37.6897 TC 95 5 63
1978347S20041 1979 130 SI MM ANGELE 1978-12-25 06:00:00 TS -21.5000 38.3600 72 954 reunion main 309 309 O____O___OO_O_ jtwc_sh SH021979 -21.5000 38.6000 -1 -21.5000 38.0000 4 72 954 5.00000 5.00000 -21.5000 38.6000 TC 35 -21.5000 38.6000 2 -21.5000 38.0000 TC 95 954 8 69
1978347S20041 1979 130 SI MM ANGELE 1978-12-25 09:00:00 TS -21.3337 38.8880 main 365 365 P____P___PP_P_ SH021979 -21.3850 39.0902 -1 -21.2426 38.5755 4 -21.3850 39.0902 TC 35 -21.4134 39.1088 2 -21.2426 38.5755 TC 95 11 74
1978347S20041 1979 130 SI MM ANGELE 1978-12-25 12:00:00 TS -21.1898 39.5436 reunion main 398 333 O____O___OP_O_ jtwc_sh SH021979 -21.3000 39.7000 -1 -21.0000 39.3000 99 9.90000 -21.3000 39.7000 TC 35 -21.3491 39.7181 2 -21.0000 39.3000 TC 95 13 81
1978347S20041 1979 130 SI MM ANGELE 1978-12-25 15:00:00 TS -21.1241 40.2335 main 333 267 P____P___PP_P_ SH021979 -21.2852 40.3573 -1 -20.8700 40.0422 99 -21.2852 40.3573 TC 35 -21.3101 40.3683 2 -20.8700 40.0422 TC 95 13 86
1978347S20041 1979 130 SI MM ANGELE 1978-12-25 18:00:00 TS -21.1000 40.9200 reunion main 267 209 O____O___OO_O_ jtwc_sh SH021979 -21.3000 41.0000 -1 -20.8000 40.8000 99 9.90000 -21.3000 41.0000 TC 35 -21.3000 41.0000 2 -20.8000 40.8000 TC 95 12 87
1978347S20041 1979 130 SI MM ANGELE 1978-12-25 21:00:00 TS -21.0595 41.5141 main 209 148 P____P___PP_P_ SH021979 -21.2846 41.5226 -1 -20.7120 41.5003 99 -21.2846 41.5226 TC 35 -21.3040 41.5247 2 -20.7120 41.5003 TC 95 11 88
1978347S20041 1979 130 SI MM ANGELE 1978-12-26 00:00:00 TS -21.0677 42.0845 954 reunion main 148 89 O____O___OP_O_ jtwc_sh SH021979 -21.3000 42.0000 -1 -20.7000 42.2000 99 954 9.90000 -21.3000 42.0000 TC 35 -21.3387 42.0226 2 -20.7000 42.2000 TC 95 954 11 95
1978347S20041 1979 130 SI MM ANGELE 1978-12-26 03:00:00 TS -21.1478 42.6879 main 89 33 P____P___PP_P_ SH021979 -21.3849 42.4999 -1 -20.7826 42.9651 99 -21.3849 42.4999 TC 35 -21.4041 42.5093 2 -20.7826 42.9651 TC 92 11 102
1978347S20041 1979 130 SI MM ANGELE 1978-12-26 06:00:00 TS -21.3000 43.2800 72 reunion main 23 0 O____O___OO_O_ jtwc_sh SH021979 -21.5000 43.0000 -1 -21.0000 43.7000 4 72 5.00000 5.00000 -21.5000 43.0000 TC 35 -21.5000 43.0000 2 -21.0000 43.7000 TC 90 11 108
1978347S20041 1979 130 SI MM ANGELE 1978-12-26 09:00:00 TS -21.4929 43.8379 main 0 0 P____P___PP_P_ SH021979 -21.5848 43.4928 -1 -21.3472 44.3449 4 -21.5848 43.4928 TC 35 -21.6005 43.5141 2 -21.3472 44.3449 TC 85 11 115
1978347S20041 1979 130 SI MM ANGELE 1978-12-26 12:00:00 TS -21.7404 44.3079 reunion main 0 0 O____O___OP_O_ jtwc_sh SH021979 -21.7000 44.0000 -1 -21.8000 44.9000 99 9.90000 -21.7000 44.0000 TC 35 -21.7319 44.0357 2 -21.8000 44.9000 TC 80 10 120
1978347S20041 1979 130 SI MM ANGELE 1978-12-26 15:00:00 TS -21.9785 44.7520 main 0 0 P____P___PP_P_ SH021979 -21.8774 44.5426 -1 -22.2892 45.3778 99 -21.8774 44.5426 TC 35 -21.8973 44.5644 2 -22.2892 45.3778 TC 75 9 119
1978347S20041 1979 130 SI MM ANGELE 1978-12-26 18:00:00 TS -22.2000 45.2000 reunion main 0 0 O____O___OO_O_ jtwc_sh SH021979 -22.1000 45.1000 -1 -22.8000 45.8000 99 9.90000 -22.1000 45.1000 TC 35 -22.1000 45.1000 2 -22.8000 45.8000 TC 70 9 113
1978347S20041 1979 130 SI MM ANGELE 1978-12-26 21:00:00 TS -22.3404 45.6609 main 0 0 P________PP___ SH021979 -22.3348 45.6502 -1 99 -22.3348 45.6502 TC 35 -22.3516 45.6824 2 TC 10 114
1978347S20041 1979 130 SI MM ANGELE 1978-12-27 00:00:00 TS -22.6119 46.2220 reunion main 0 0 O________OP___ jtwc_sh SH021979 -22.6000 46.2000 -1 99 -22.6000 46.2000 TC 35 -22.6357 46.2661 2 TC 12 119
1978347S20041 1979 130 SI MM ANGELE 1978-12-27 03:00:00 TS -22.9140 46.7921 main 0 0 P________PP___ SH021979 -22.9076 46.7798 -1 99 -22.9076 46.7798 TC 35 -22.9268 46.8168 2 TC 12 121
1978347S20041 1979 130 SI MM ANGELE 1978-12-27 06:00:00 TS -23.2000 47.3000 44 984 reunion main 0 0 O________OO___ jtwc_sh SH021979 -23.2000 47.3000 -1 99 -23.2000 47.3000 TC 35 -23.2000 47.3000 2 TC 10 121
1978347S20041 1979 130 SI MM ANGELE 1978-12-27 09:00:00 TS -23.4139 47.6839 main 0 0 P________PP___ SH021979 -23.4148 47.6953 -1 99 -23.4148 47.6953 TC 35 -23.4122 47.6611 2 TC 7 123
1978347S20041 1979 130 SI MM ANGELE 1978-12-27 12:00:00 TS -23.6020 47.9848 reunion main 37 37 O________OP___ jtwc_sh SH021979 -23.6000 48.0000 -1 99 -23.6000 48.0000 TC 35 -23.6059 47.9544 2 TC 6 127
1978347S20041 1979 130 SI MM ANGELE 1978-12-27 15:00:00 TS -23.7938 48.2403 main 65 65 P________PP___ SH021979 -23.7923 48.2503 -1 99 -23.7923 48.2503 TC 35 -23.7967 48.2204 2 TC 6 130
1978347S20041 1979 130 SI MM ANGELE 1978-12-27 18:00:00 TS -24.0000 48.5000 reunion main 101 101 O________OO___ jtwc_sh SH021979 -24.0000 48.5000 -1 99 -24.0000 48.5000 TC 35 -24.0000 48.5000 2 TC 7 130
1978347S20041 1979 130 SI MM ANGELE 1978-12-27 21:00:00 TS -24.2468 48.8294 main 133 133 P________PP___ SH021979 -24.2425 48.8276 -1 99 -24.2425 48.8276 TC 35 -24.2555 48.8330 2 TC 8 129
1978347S20041 1979 130 SI MM ANGELE 1978-12-28 00:00:00 TS -24.5073 49.1966 reunion main 181 181 O________OP___ jtwc_sh SH021979 -24.5000 49.2000 -1 99 -24.5000 49.2000 TC 35 -24.5218 49.1898 2 TC 9 128
1978347S20041 1979 130 SI MM ANGELE 1978-12-28 03:00:00 TS -24.7740 49.5772 main 230 230 P________PP___ SH021979 -24.7723 49.5774 -1 99 -24.7723 49.5774 TC 35 -24.7772 49.5767 2 TC 9 124
1978347S20041 1979 130 SI MM ANGELE 1978-12-28 06:00:00 TS -25.0000 50.0000 36 991 reunion main 276 276 O________OO___ jtwc_sh SH021979 -25.0000 50.0000 -1 99 -25.0000 50.0000 TC 35 -25.0000 50.0000 2 TC 9 114
1978347S20041 1979 130 SI MM ANGELE 1978-12-28 09:00:00 TS -25.1303 50.4798 main 327 327 P________PP___ SH021979 -25.1150 50.4854 -1 99 -25.1150 50.4854 TC 35 -25.1611 50.4688 2 TC 9 104
1978347S20041 1979 130 SI MM ANGELE 1978-12-28 12:00:00 TS -25.2292 50.9903 reunion main 378 378 O________OP___ jtwc_sh SH021979 -25.2000 51.0000 -1 99 -25.2000 51.0000 TC 35 -25.2877 50.9709 2 TC 10 104
1978347S20041 1979 130 SI MM ANGELE 1978-12-28 15:00:00 TS -25.3651 51.5008 main 433 433 P________PP___ SH021979 -25.3499 51.5074 -1 99 -25.3499 51.5074 TC 35 -25.3954 51.4875 2 TC 10 107
1978347S20041 1979 130 SI MM ANGELE 1978-12-28 18:00:00 TS -25.5000 52.0000 reunion main 484 484 O________OO___ jtwc_sh SH021979 -25.5000 52.0000 -1 99 -25.5000 52.0000 TC 35 -25.5000 52.0000 2 TC 11 115
1978347S20041 1979 130 SI MM ANGELE 1978-12-28 21:00:00 TS -25.8149 52.5724 main 551 551 P________PP___ SH021979 -25.5997 52.4503 -1 99 -25.5997 52.4503 TC 35 -25.6528 52.4777 2 TC 11 120
1978347S20041 1979 130 SI MM ANGELE 1978-12-29 00:00:00 TS -26.0504 53.0623 reunion main 581 573 O____O___OP_O_ jtwc_sh SH021979 -25.7000 52.9000 -1 -27.0000 53.5000 99 9.90000 -25.7000 52.9000 TC 35 -25.8016 52.9492 2 -27.0000 53.5000 TC 40 10 118
1978347S20041 1979 130 SI MM ANGELE 1978-12-29 03:00:00 TS -26.2565 53.5146 main 587 580 P____P___PP_P_ SH021979 -25.8648 53.3847 -1 -27.0063 53.7555 99 -25.8648 53.3847 TC 35 -25.9246 53.4212 2 -27.0063 53.7555 TC 35 9 114
1978347S20041 1979 130 SI MM ANGELE 1978-12-29 06:00:00 MX -26.4000 53.9400 24 1000 reunion main 584 574 O____O___OO_O_ jtwc_sh SH021979 -26.0000 53.9000 -1 -27.0000 54.0000 5 24 1000 2.00000 2.00000 -26.0000 53.9000 TC 35 -26.0000 53.9000 2 -27.0000 54.0000 EX 30 1000 8 102
1978347S20041 1979 130 SI MM ANGELE 1978-12-29 09:00:00 MX -26.4134 54.3629 main 571 564 P____P___PP_P_ SH021979 -26.0375 54.4576 -1 -26.9999 54.2425 5 -26.0375 54.4576 TC 35 -25.9922 54.4143 2 -26.9999 54.2425 EX 35 8 89
1978347S20041 1979 130 SI MM ANGELE 1978-12-29 12:00:00 TS -26.3875 54.7863 reunion main 564 549 O____O___OP_O_ jtwc_sh SH021979 -26.0000 55.0000 -1 -27.0000 54.5000 99 9.90000 -26.0000 55.0000 TC 35 -25.9377 54.9315 2 -27.0000 54.5000 TC 40 7 84
1978347S20041 1979 130 SI MM ANGELE 1978-12-29 15:00:00 TS -26.3357 55.1897 main 549 547 P____P___PP_P_ SH021979 -25.9073 55.4802 -1 -26.9999 54.7775 99 -25.9073 55.4802 TC 35 -25.8642 55.4329 2 -26.9999 54.7775 TC 40 7 81
1978347S20041 1979 130 SI MM ANGELE 1978-12-29 18:00:00 TS -26.2800 55.5800 reunion main 547 536 O____O___OO_O_ jtwc_sh SH021979 -25.8000 55.9000 -1 -27.0000 55.1000 99 9.90000 -25.8000 55.9000 TC 35 -25.8000 55.9000 2 -27.0000 55.1000 TC 40 7 82
1978347S20041 1979 130 SI MM ANGELE 1978-12-29 21:00:00 TS -26.2329 55.9594 main 537 537 P____P___PP_P_ SH021979 -25.7272 56.2575 -1 -26.9850 55.4852 99 -25.7272 56.2575 TC 30 -25.7401 56.3116 2 -26.9850 55.4852 TC 40 7 85
1978347S20041 1979 130 SI MM ANGELE 1978-12-30 00:00:00 TS -26.2203 56.3377 reunion main 541 541 O____O___OP_O_ jtwc_sh SH021979 -25.7000 56.6000 -1 -27.0000 55.9000 99 9.90000 -25.7000 56.6000 TC 25 -25.7015 56.6887 2 -27.0000 55.9000 TC 40 7 92
1978347S20041 1979 130 SI MM ANGELE 1978-12-30 03:00:00 TS -26.2524 56.7353 main 558 558 P____P___PP_P_ SH021979 -25.7050 57.0002 -1 -27.0700 56.3150 99 -25.7050 57.0002 TC 25 -25.7121 57.0463 2 -27.0700 56.3150 TC 35 7 101
1978347S20041 1979 130 SI MM ANGELE 1978-12-30 06:00:00 MX -26.3600 57.1200 24 1000 reunion main 579 579 O____O___OO_O_ jtwc_sh SH021979 -25.8000 57.4000 -1 -27.2000 56.7000 5 24 1000 2.00000 2.00000 -25.8000 57.4000 TC 25 -25.8000 57.4000 1 -27.2000 56.7000 EX 30 1000 7 115
1978347S20041 1979 130 SI MM ANGELE 1978-12-30 09:00:00 MX -26.5563 57.4579 main 612 612 P____P___PP_P_ SH021979 -26.0123 57.7500 -1 -27.3848 57.0076 5 -26.0123 57.7500 TC 25 -25.9875 57.7745 1 -27.3848 57.0076 EX 32 8 127
1978347S20041 1979 130 SI MM ANGELE 1978-12-30 12:00:00 TS -26.8104 57.7899 reunion main 643 643 O____O___OP_O_ jtwc_sh SH021979 -26.3000 58.1000 -1 -27.6000 57.3000 99 9.90000 -26.3000 58.1000 TC 25 -26.2521 58.1495 1 -27.6000 57.3000 TC 35 8 129
1978347S20041 1979 130 SI MM ANGELE 1978-12-30 15:00:00 TS -27.0611 58.1562 main 689 689 P____P___PP_P_ SH021979 -26.5925 58.5000 -1 -27.7773 57.6279 99 -26.5925 58.5000 TC 25 -26.5657 58.5248 1 -27.7773 57.6279 TC 35 9 128
1978347S20041 1979 130 SI MM ANGELE 1978-12-30 18:00:00 TS -27.3400 58.5400 reunion main 721 721 O____O___OO_O_ jtwc_sh SH021979 -26.9000 58.9000 -1 -28.0000 58.0000 99 9.90000 -26.9000 58.9000 TC 25 -26.9000 58.9000 1 -28.0000 58.0000 TC 35 9 130
1978347S20041 1979 130 SI MM ANGELE 1978-12-30 21:00:00 TS -27.6444 58.9295 main 768 768 P____P___PP_P_ SH021979 -27.1923 59.2504 -1 -28.3202 58.4573 99 -27.1923 59.2504 TC 25 -27.1972 59.2322 1 -28.3202 58.4573 TC 32 9 131
1978347S20041 1979 130 SI MM ANGELE 1978-12-31 00:00:00 TS -27.9443 59.3359 reunion main 816 816 O____O___OP_O_ jtwc_sh SH021979 -27.5000 59.6000 -1 -28.7000 58.9000 99 9.90000 -27.5000 59.6000 TC 25 -27.5105 59.5705 1 -28.7000 58.9000 TC 30 9 133
1978347S20041 1979 130 SI MM ANGELE 1978-12-31 03:00:00 TS -28.2639 59.6697 main 874 874 P____P___PP_P_ SH021979 -27.8347 59.9705 -1 -29.0974 59.2349 99 -27.8347 59.9705 TC 25 -27.8437 59.9484 1 -29.1259 59.0067 TC 30 10 132
1978347S20041 1979 130 SI MM ANGELE 1978-12-31 06:00:00 TS -28.5824 60.1353 reunion main 923 923 O____O___OO_O_ jtwc_sh SH021979 -28.2000 60.4000 -1 -29.5000 59.5000 6 9.90000 -28.2000 60.4000 TC 25 -28.2000 60.4000 1 -29.5000 59.5000 TC 30 13 118
1978347S20041 1979 130 SI MM ANGELE 1978-12-31 09:00:00 TS -28.8735 60.9673 main 995 995 P________PP_P_ SH021979 -28.5921 60.8979 -1 6 -28.5921 60.8979 TC 25 -28.6219 60.9208 1 -29.6879 61.1527 TC 30 17 112
1978347S20041 1979 130 SI MM ANGELE 1978-12-31 12:00:00 TS -29.2144 61.8813 main 1060 1060 O________OP_O_ jtwc_sh SH021979 -29.0000 61.5000 -1 -29.0000 61.5000 TC 25 -29.0577 61.5253 1 -29.8000 63.0000 TC 30 16 116
1978347S20041 1979 130 SI MM ANGELE 1978-12-31 15:00:00 TS -29.5837 62.6667 main 1134 1134 P________PP_P_ SH021979 -29.4295 62.1898 -1 -29.4295 62.1898 TC 25 -29.4648 62.2174 1 -30.0109 64.0699 TC 30 15 116
1978347S20041 1979 130 SI MM ANGELE 1978-12-31 18:00:00 TS -29.9000 63.4750 main 1200 1200 O________OO_O_ jtwc_sh SH021979 -29.8000 63.0000 -1 -29.8000 63.0000 TC 25 -29.8000 63.0000 1 -30.2000 64.9000 TC 30 16 109
1978347S20041 1979 130 SI MM ANGELE 1978-12-31 21:00:00 TS -30.1028 64.4047 main 1265 1265 P________PP_P_ SH021979 -30.0524 63.9203 -1 -30.0524 63.9203 TC 25 -30.0265 63.8976 1 -30.2799 65.8805 TC 30 17 101
1978347S20041 1979 130 SI MM ANGELE 1979-01-01 00:00:00 TS -30.2183 65.3679 main 1330 1330 O________OP_O_ jtwc_sh SH021979 -30.2000 64.9000 -1 -30.2000 64.9000 TC 25 -30.1730 64.8716 1 -30.3000 66.8000 TC 30 16 96
1978347S20041 1979 130 SI MM ANGELE 1979-01-01 03:00:00 TS -30.2809 66.2965 main 1392 1392 P________PP_P_ SH021979 -30.2798 65.8730 -1 -30.2798 65.8730 TC 25 -30.2576 65.8597 1 -30.3065 67.5802 TC 30 16 93
1978347S20041 1979 130 SI MM ANGELE 1979-01-01 06:00:00 TS -30.3000 67.1750 main 1450 1450 O________OO_O_ jtwc_sh SH021979 -30.3000 66.8000 -1 -30.3000 66.8000 TC 25 -30.3000 66.8000 1 -30.3000 68.3000 TC 30 15 91
1978347S20041 1979 130 SI MM ANGELE 1979-01-01 09:00:00 TS -30.3187 67.9990 main 1504 1504 P________PP_P_ SH021979 -30.3068 67.6377 -1 -30.3068 67.6377 TC 25 -30.3462 67.6408 1 -30.3150 69.0797 TC 30 14 91
1978347S20041 1979 130 SI MM ANGELE 1979-01-01 12:00:00 TS -30.3145 68.7552 main 1560 1560 O________OP_O_ jtwc_sh SH021979 -30.3000 68.4000 -1 -30.3000 68.4000 TC 25 -30.3578 68.4209 1 -30.3000 69.8000 TC 30 13 89
1978347S20041 1979 130 SI MM ANGELE 1979-01-01 15:00:00 TS -30.2942 69.4488 main 1603 1603 P________PP_P_ SH021979 -30.3147 69.1372 -1 -30.3147 69.1372 TC 25 -30.3406 69.1404 1 -30.2068 70.3802 TC 30 11 87
1978347S20041 1979 130 SI MM ANGELE 1979-01-01 18:00:00 TS -30.2500 70.0750 main 1648 1648 O________OO_O_ jtwc_sh SH021979 -30.3000 69.8000 -1 -30.3000 69.8000 TC 25 -30.3000 69.8000 1 -30.1000 70.9000 TC 30 11 83
1978347S20041 1979 130 SI MM ANGELE 1979-01-01 21:00:00 TS -30.1733 70.6576 main 1694 1694 P________PP_P_ SH021979 -30.2070 70.3727 -1 -30.2070 70.3727 TC 25 -30.2367 70.4202 1 -30.0424 71.4648 TC 30 10 81
1978347S20041 1979 130 SI MM ANGELE 1979-01-02 00:00:00 TS -30.0889 71.1958 main 1726 1726 O________OP_O_ jtwc_sh SH021979 -30.1000 70.9000 -1 -30.1000 70.9000 TC 25 -30.1554 70.9832 1 -30.0000 72.0000 TC 30 9 81
1978347S20041 1979 130 SI MM ANGELE 1979-01-02 03:00:00 TS -30.0246 71.7192 main 1759 1759 P________PP_P_ SH021979 -30.0424 71.4573 -1 -30.0424 71.4573 TC 25 -30.0715 71.5045 1 -29.9421 72.4575 TC 30 9 83
1978347S20041 1979 130 SI MM ANGELE 1979-01-02 06:00:00 TS -29.9750 72.2250 main 1799 1799 O________OO_O_ jtwc_sh SH021979 -30.0000 72.0000 -1 -30.0000 72.0000 TC 25 -30.0000 72.0000 1 -29.9000 72.9000 TC 30 9 84
1978347S20041 1979 130 SI MM ANGELE 1979-01-02 09:00:00 TS -29.9343 72.7453 main 1834 1834 P________PP_P_ SH021979 -29.9423 72.5150 -1 -29.9423 72.5150 TC 25 -29.9523 72.5288 1 -29.9002 73.4223 TC 30 9 85
1978347S20041 1979 130 SI MM ANGELE 1979-01-02 12:00:00 TS -29.9050 73.2330 main 1876 1876 O________OP_O_ jtwc_sh SH021979 -29.9000 73.0000 -1 -29.9000 73.0000 TC 25 -29.9199 73.0322 1 -29.9000 73.9000 TC 30 8 86
1978347S20041 1979 130 SI MM ANGELE 1979-01-02 15:00:00 TS -29.8804 73.6618 main 1917 1917 P________PP_P_ SH021979 -29.8923 73.4574 -1 -29.8923 73.4574 TC 25 -29.9025 73.4945 1 -29.8347 74.2377 TC 27 7 88
1978347S20041 1979 130 SI MM ANGELE 1979-01-02 18:00:00 TS -29.8750 74.0500 main 1951 1951 O________OO_O_ jtwc_sh SH021979 -29.9000 73.9000 -1 -29.9000 73.9000 TC 25 -29.9000 73.9000 1 -29.8000 74.5000 TC 25 7 89
1978347S20041 1979 130 SI MM ANGELE 1979-01-02 21:00:00 TS -29.8688 74.4887 main 1985 1985 P________PP_P_ SH021979 -29.8927 74.4025 -1 -29.8927 74.4025 TC 25 -29.8573 74.3252 1 -29.8325 74.8246 TC 25 7 93
1978347S20041 1979 130 SI MM ANGELE 1979-01-03 00:00:00 TS -29.9092 74.8203 main 2010 2010 O________OP_O_ jtwc_sh SH021979 -29.9000 74.8000 -1 -29.9000 74.8000 TC 25 -29.8368 74.6810 1 -30.0000 75.0000 TC 25 4 109
1978347S20041 1979 130 SI MM ANGELE 1979-01-03 03:00:00 TS -30.0130 74.9609 main 2033 2029 P________PP_P_ SH021979 -29.9046 75.0122 -1 -29.9046 75.0122 TC 25 -29.8728 74.9213 1 -30.3698 74.8978 TC 25 3 167
1978347S20041 1979 130 SI MM ANGELE 1979-01-03 06:00:00 TS -30.2000 74.9000 main 2034 2028 O________OO_O_ jtwc_sh SH021979 -30.0000 75.0000 -1 -30.0000 75.0000 TC 25 -30.0000 75.0000 1 -30.8000 74.6000 TC 25 5 210
1978347S20041 1979 130 SI MM ANGELE 1979-01-03 09:00:00 TS -30.4717 74.6535 main 2034 2017 P________PP_P_ SH021979 -30.2477 74.7602 -1 -30.2477 74.7602 TC 25 -30.2688 74.8709 1 -31.1227 74.2226 TC 25 8 221
1978347S20041 1979 130 SI MM ANGELE 1979-01-03 12:00:00 TS -30.8063 74.2956 main 2017 2010 O________OP_O_ jtwc_sh SH021979 -30.6000 74.4000 -1 -30.6000 74.4000 TC 25 -30.6254 74.5824 1 -31.4000 73.8000 TC 25 9 220
1978347S20041 1979 130 SI MM ANGELE 1979-01-03 15:00:00 TS -31.1672 73.9630 main 2003 1963 P________PP_P_ SH021979 -30.9999 74.1075 -1 -30.9999 74.1075 TC 25 -31.0191 74.2024 1 -31.6499 73.4346 TC 25 9 219
1978347S20041 1979 130 SI MM ANGELE 1979-01-03 18:00:00 TS -31.5250 73.6250 main 1963 1925 O________OO_O_ jtwc_sh SH021979 -31.4000 73.8000 -1 -31.4000 73.8000 TC 25 -31.4000 73.8000 1 -31.9000 73.1000 TC 25 9 222
1978347S20041 1979 130 SI MM ANGELE 1979-01-03 21:00:00 TS -31.8366 73.2625 main 1925 1886 P________PP_P_ SH021979 -31.7225 73.4499 -1 -31.7225 73.4499 TC 25 -31.7012 73.4098 1 -32.2001 72.7404 TC 25 8 225
1978347S20041 1979 130 SI MM ANGELE 1979-01-04 00:00:00 TS -32.1202 72.9310 main 1886 1850 O________OP_O_ jtwc_sh SH021979 -32.0000 73.1000 -1 -32.0000 73.1000 TC 25 -31.9808 73.0239 1 -32.5000 72.5000 TC 25 7 223
1978347S20041 1979 130 SI MM ANGELE 1979-01-04 03:00:00 TS -32.3793 72.6677 main 1850 1825 P________PP_P_ SH021979 -32.2576 72.7476 -1 -32.2576 72.7476 TC 25 -32.2449 72.7009 1 -32.7573 72.4747 TC 25 6 214
1978347S20041 1979 130 SI MM ANGELE 1979-01-04 06:00:00 TS -32.6250 72.5250 main 1825 1792 O________OO_O_ jtwc_sh SH021979 -32.5000 72.5000 -1 -32.5000 72.5000 TC 25 -32.5000 72.5000 1 -33.0000 72.6000 TC 25 5 194
1978347S20041 1979 130 SI MM ANGELE 1979-01-04 09:00:00 TS -32.8825 72.5186 main 1792 1772 P________PP_P_ SH021979 -32.7498 72.4174 -1 -32.7498 72.4174 TC 25 -32.7728 72.4698 1 -33.2575 72.7699 TC 25 5 169
1978347S20041 1979 130 SI MM ANGELE 1979-01-04 12:00:00 TS -33.1342 72.6421 main 1772 1741 O________OP_O_ jtwc_sh SH021979 -33.0000 72.5000 -1 -33.0000 72.5000 TC 25 -33.0368 72.5682 1 -33.5000 73.0000 TC 25 6 151
1978347S20041 1979 130 SI MM ANGELE 1979-01-04 15:00:00 TS -33.3800 72.8543 main 1743 1724 P________PP_P_ SH021979 -33.2576 72.7123 -1 -33.2576 72.7123 TC 25 -33.2824 72.7577 1 -33.7224 73.2350 TC 25 6 139
1978347S20041 1979 130 SI MM ANGELE 1979-01-04 18:00:00 TS -33.5800 73.1000 main 1724 1715 O________OO_O_ jtwc_sh SH021979 -33.5000 73.0000 -1 -33.5000 73.0000 TC 25 -33.5000 73.0000 1 -33.9000 73.5000 TC 25 5 133
1978347S20041 1979 130 SI MM ANGELE 1979-01-04 21:00:00 TS -33.7534 73.3268 main 1705 1698 P________PP_P_ SH021979 -33.7224 73.2426 -1 -33.7224 73.2426 TC 25 -33.6832 73.2623 1 -34.0177 73.7924 TC 25 5 129
1978347S20041 1979 130 SI MM ANGELE 1979-01-05 00:00:00 TS -33.9015 73.5706 main 1700 1691 O________OP_O_ jtwc_sh SH021979 -33.9000 73.5000 -1 -33.9000 73.5000 TC 25 -33.8382 73.5353 1 -34.1000 74.1000 TC 25 5 123
1978347S20041 1979 130 SI MM ANGELE 1979-01-05 03:00:00 TS -34.0031 73.7985 main 1693 1684 P________PP___ SH021979 -34.0177 73.7899 -1 -34.0177 73.7899 TC 25 -33.9740 73.8157 1 TC 5 114
1978347S20041 1979 130 SI MM ANGELE 1979-01-05 06:00:00 TS -34.1000 74.1000 main 1688 O________OO___ jtwc_sh SH021979 -34.1000 74.1000 -1 -34.1000 74.1000 TC 25 -34.1000 74.1000 1 5 111

About IBTrACS Database

This database is a web-friendly format of International Best Track Archive for Climate Stewardship (IBTrACS), a global best track data archive curated by NOAA dating back to 1842.

Updated: 2021-10-21